Time;durP1;ratioP1;P1;durP2;ratioP2;P2;SDS_P1;SDS_P2;PMS_P1;PMS_P2;Temp;Humidity;BMP_temperature;BMP_pressure;BME280_temperature;BME280_humidity;BME280_pressure;Samples;Min_cycle;Max_cycle;Signal;HPM_P1;HPM_P2
2022/11/29 00:02:01;;;;;;;0.53;0.53;;;;;;;6.88;79.14;95402.97;5113328;28;20424;-54
2022/11/29 00:04:30;;;;;;;0.30;0.20;;;;;;;7.08;81.91;95405.06;5113836;28;20421;-54
2022/11/29 00:06:58;;;;;;;1.80;0.40;;;;;;;6.93;81.71;95406.44;5113206;27;20428;-55
2022/11/29 00:09:26;;;;;;;0.37;0.30;;;;;;;6.98;81.09;95398.59;5112644;27;20536;-54
2022/11/29 00:12:14;;;;;;;0.40;0.30;;;;;;;7.00;80.12;95409.72;5113054;28;20467;-54
2022/11/29 00:14:42;;;;;;;0.40;0.20;;;;;;;7.61;79.04;95405.94;5113194;28;20446;-54
2022/11/29 00:17:11;;;;;;;0.83;0.83;;;;;;;7.97;76.41;95401.03;5113380;28;20447;-54
2022/11/29 00:19:39;;;;;;;0.33;0.20;;;;;;;8.10;74.80;95398.75;5113254;28;20439;-54
2022/11/29 00:22:07;;;;;;;2.13;1.10;;;;;;;8.18;73.51;95390.38;5113314;28;20419;-54
2022/11/29 00:24:36;;;;;;;0.30;0.20;;;;;;;7.90;72.43;95331.78;5112523;28;20423;-54
2022/11/29 00:27:06;;;;;;;0.30;0.20;;;;;;;8.25;72.57;95382.22;5112903;28;21023;-54
2022/11/29 00:29:34;;;;;;;2.10;1.50;;;;;;;7.60;72.80;95388.53;5112819;28;20440;-54
2022/11/29 00:32:03;;;;;;;0.30;0.20;;;;;;;7.43;74.30;95374.63;5112721;28;20487;-54
2022/11/29 00:34:31;;;;;;;0.30;0.20;;;;;;;7.67;73.15;95375.13;5112723;28;20424;-54
2022/11/29 00:36:59;;;;;;;0.30;0.20;;;;;;;7.37;74.57;95378.25;5112965;28;20527;-54
2022/11/29 00:39:27;;;;;;;0.40;0.30;;;;;;;7.10;75.15;95387.97;5112985;28;20424;-54
2022/11/29 00:41:56;;;;;;;0.30;0.30;;;;;;;6.46;80.81;95386.84;5112644;28;20430;-54
2022/11/29 00:44:25;;;;;;;0.40;0.23;;;;;;;6.84;79.64;95386.84;5112048;28;20432;-55
2022/11/29 00:46:54;;;;;;;0.30;0.20;;;;;;;6.75;80.72;95383.06;5112532;28;20435;-55
2022/11/29 00:49:22;;;;;;;0.30;0.20;;;;;;;6.97;80.04;95381.22;5112595;28;20979;-54
2022/11/29 00:51:50;;;;;;;0.30;0.20;;;;;;;7.01;80.57;95384.16;5112405;28;20912;-54
2022/11/29 00:54:18;;;;;;;0.30;0.20;;;;;;;6.96;81.40;95387.53;5112781;28;20447;-55
2022/11/29 00:56:47;;;;;;;0.50;0.47;;;;;;;7.28;78.94;95379.75;5111587;28;20432;-55
2022/11/29 00:59:15;;;;;;;0.50;0.30;;;;;;;7.40;77.71;95377.78;5112143;28;20435;-55
2022/11/29 01:01:45;;;;;;;0.40;0.37;;;;;;;7.53;76.72;95379.22;5112455;28;20424;-55
2022/11/29 01:04:13;;;;;;;0.30;0.20;;;;;;;7.61;76.18;95384.81;5112333;28;20535;-54
2022/11/29 01:06:41;;;;;;;0.30;0.30;;;;;;;7.03;75.01;95303.03;5112717;28;20499;-55
2022/11/29 01:09:10;;;;;;;0.30;0.20;;;;;;;7.44;75.54;95385.97;5112328;28;20804;-55
2022/11/29 01:11:38;;;;;;;0.30;0.20;;;;;;;7.28;76.43;95378.94;5111631;28;20499;-55
2022/11/29 01:14:06;;;;;;;0.30;0.20;;;;;;;7.36;76.34;95379.28;5112200;28;20476;-55
2022/11/29 01:16:35;;;;;;;0.30;0.30;;;;;;;7.25;76.80;95388.16;5112356;28;20430;-55
2022/11/29 01:19:06;;;;;;;0.40;0.40;;;;;;;6.44;78.57;95377.59;5112390;28;20458;-55
2022/11/29 01:21:34;;;;;;;0.50;0.23;;;;;;;6.79;83.95;95378.06;5112205;28;20424;-55
2022/11/29 01:24:02;;;;;;;0.50;0.40;;;;;;;6.22;80.68;95396.75;5112507;28;20415;-54
2022/11/29 01:26:31;;;;;;;0.40;0.20;;;;;;;6.34;83.08;95389.56;5112254;28;20951;-55
2022/11/29 01:29:00;;;;;;;0.30;0.30;;;;;;;6.55;84.74;95388.03;5111013;28;20464;-55
2022/11/29 01:31:30;;;;;;;0.40;0.40;;;;;;;6.20;83.66;95384.84;5111631;28;20510;-55
2022/11/29 01:34:00;;;;;;;0.30;0.20;;;;;;;6.72;84.19;95377.47;5111887;28;20563;-55
2022/11/29 01:36:30;;;;;;;0.30;0.20;;;;;;;6.37;81.48;95378.53;5112111;28;20435;-55
2022/11/29 01:38:59;;;;;;;0.30;0.20;;;;;;;6.75;81.46;95374.34;5112063;28;20431;-55
2022/11/29 01:41:29;;;;;;;0.60;0.60;;;;;;;6.35;80.76;95379.81;5112267;28;20424;-55
2022/11/29 01:44:01;;;;;;;0.30;0.27;;;;;;;6.15;82.88;95377.69;5112282;28;20420;-55
2022/11/29 01:46:31;;;;;;;0.40;0.40;;;;;;;5.98;84.22;95355.03;5111899;28;20438;-55
2022/11/29 01:49:05;;;;;;;0.30;0.20;;;;;;;6.22;82.52;95378.31;5112168;28;20428;-55
2022/11/29 01:51:37;;;;;;;0.40;0.30;;;;;;;6.32;84.88;95377.69;5112176;28;20471;-55
2022/11/29 01:54:07;;;;;;;0.50;0.30;;;;;;;6.03;82.68;95324.34;5111953;28;20475;-55
2022/11/29 01:56:37;;;;;;;1.03;0.63;;;;;;;6.21;82.51;95341.72;5111182;28;20526;-55
2022/11/29 01:59:11;;;;;;;0.40;0.30;;;;;;;6.48;81.87;95376.09;5112207;28;20424;-55
2022/11/29 02:01:39;;;;;;;0.40;0.30;;;;;;;6.71;81.68;95363.50;5112147;28;20435;-54
2022/11/29 02:04:08;;;;;;;0.30;0.20;;;;;;;6.30;81.51;95312.13;5112062;28;20497;-55
2022/11/29 02:06:39;;;;;;;0.30;0.20;;;;;;;6.79;79.73;95370.97;5111675;28;20438;-55
2022/11/29 02:09:19;;;;;;;0.40;0.40;;;;;;;6.61;81.25;95373.09;5111767;28;20423;-55
2022/11/29 02:12:14;;;;;;;0.30;0.30;;;;;;;6.56;81.80;95367.75;5111127;28;20865;-54
2022/11/29 02:15:13;;;;;;;0.30;0.20;;;;;;;6.47;82.92;95367.38;5109841;28;20436;-54
2022/11/29 02:17:56;;;;;;;0.50;0.30;;;;;;;6.72;82.77;95364.28;5111544;28;20978;-54
2022/11/29 02:21:11;;;;;;;0.30;0.20;;;;;;;7.27;80.12;95362.31;5111871;28;20520;-54
2022/11/29 02:24:14;;;;;;;0.30;0.20;;;;;;;7.58;78.67;95364.25;5115104;28;20499;-54
2022/11/29 02:27:12;;;;;;;0.40;0.20;;;;;;;7.52;77.58;95369.69;5092038;28;20441;-54
2022/11/29 02:30:30;;;;;;;0.30;0.20;;;;;;;7.37;78.74;95361.63;5115103;28;20435;-54
2022/11/29 02:33:28;;;;;;;4.17;0.50;;;;;;;7.61;77.68;95363.72;5088484;28;20471;-55
2022/11/29 02:36:23;;;;;;;0.30;0.20;;;;;;;7.82;76.78;95369.22;5114730;28;20436;-54
2022/11/29 02:39:14;;;;;;;0.30;0.20;;;;;;;8.05;74.62;95356.47;5115463;28;20447;-54
2022/11/29 02:41:58;;;;;;;3.23;0.60;;;;;;;7.74;76.16;95359.13;5114826;28;20527;-54
2022/11/29 02:44:47;;;;;;;1.03;1.00;;;;;;;7.32;77.38;95349.19;5114905;28;20426;-54
2022/11/29 02:47:26;;;;;;;0.83;0.83;;;;;;;7.07;78.65;95359.47;5114716;28;20522;-54
2022/11/29 02:50:18;;;;;;;0.47;0.40;;;;;;;7.28;79.01;95328.88;5115034;28;20423;-54
2022/11/29 02:53:00;;;;;;;0.50;0.40;;;;;;;7.89;76.70;95354.78;5111933;28;20447;-54
2022/11/29 02:55:33;;;;;;;1.13;0.30;;;;;;;8.00;77.28;95350.34;5114854;28;20939;-54
2022/11/29 02:58:11;;;;;;;0.73;0.73;;;;;;;7.97;77.36;95343.72;5114871;28;20495;-54
2022/11/29 03:00:47;;;;;;;0.30;0.20;;;;;;;7.99;77.24;95360.13;5114786;28;20427;-54
2022/11/29 03:03:21;;;;;;;0.87;0.87;;;;;;;7.80;76.92;95313.25;5114680;28;20428;-54
2022/11/29 03:05:57;;;;;;;0.30;0.20;;;;;;;7.84;77.49;95352.09;5114463;28;20506;-54
2022/11/29 03:08:33;;;;;;;0.50;0.50;;;;;;;7.31;78.92;95358.16;5114951;28;20453;-54
2022/11/29 03:11:12;;;;;;;0.30;0.20;;;;;;;7.13;80.24;95350.59;5115038;28;20447;-54
2022/11/29 03:13:51;;;;;;;0.40;0.30;;;;;;;7.09;80.99;95359.19;5114558;28;20463;-54
2022/11/29 03:16:29;;;;;;;0.40;0.30;;;;;;;7.56;80.17;95350.50;5114723;28;20788;-55
2022/11/29 03:19:05;;;;;;;0.30;0.20;;;;;;;7.63;80.44;95364.28;5113628;28;20874;-54
2022/11/29 03:21:41;;;;;;;0.40;0.30;;;;;;;6.91;81.71;95374.28;5114224;28;20430;-54
2022/11/29 03:24:15;;;;;;;3.73;1.20;;;;;;;6.20;90.91;95372.50;5114402;28;20815;-54
2022/11/29 03:26:49;;;;;;;0.40;0.40;;;;;;;6.15;97.09;95385.59;5114223;28;20904;-54
2022/11/29 03:29:27;;;;;;;0.63;0.60;;;;;;;5.79;99.55;95349.97;5113948;28;20480;-54
2022/11/29 03:32:01;;;;;;;1.00;0.67;;;;;;;5.95;100.00;95368.66;5113969;28;20514;-54
2022/11/29 03:34:48;;;;;;;0.60;0.60;;;;;;;6.57;100.00;95379.88;5112797;28;20940;-54
2022/11/29 03:37:30;;;;;;;1.60;1.60;;;;;;;6.27;96.02;95304.69;5113915;28;20778;-55
2022/11/29 03:40:04;;;;;;;0.60;0.43;;;;;;;6.72;94.70;95388.81;5113601;27;20477;-54
2022/11/29 03:42:38;;;;;;;0.40;0.40;;;;;;;6.62;94.07;95346.53;5113046;28;21022;-54
2022/11/29 03:45:14;;;;;;;0.50;0.33;;;;;;;6.48;91.83;95282.06;5113627;28;20436;-54
2022/11/29 03:47:51;;;;;;;1.03;1.03;;;;;;;7.42;88.17;95386.22;5113243;28;20999;-54
2022/11/29 03:50:23;;;;;;;0.60;0.60;;;;;;;7.56;85.73;95387.41;5113653;27;20423;-54
2022/11/29 03:52:56;;;;;;;0.50;0.50;;;;;;;6.50;86.90;95287.91;5113243;28;20522;-54
2022/11/29 03:55:33;;;;;;;0.57;0.53;;;;;;;6.88;90.50;95342.38;5113551;28;20874;-54
2022/11/29 03:58:13;;;;;;;0.93;0.93;;;;;;;6.82;90.94;95357.31;5112882;28;20434;-54
2022/11/29 04:01:02;;;;;;;0.70;0.70;;;;;;;6.89;92.19;95397.44;5113112;28;20916;-54
2022/11/29 04:03:57;;;;;;;1.27;1.23;;;;;;;6.77;91.16;95377.53;5113403;28;20431;-55
2022/11/29 04:06:46;;;;;;;0.87;0.87;;;;;;;6.62;93.16;95375.50;5112940;28;20442;-54
2022/11/29 04:09:35;;;;;;;0.40;0.40;;;;;;;7.03;90.58;95385.50;5112950;28;20863;-54
2022/11/29 04:12:35;;;;;;;1.03;0.80;;;;;;;7.11;90.45;95400.09;5113182;28;20446;-54
2022/11/29 04:15:52;;;;;;;0.40;0.27;;;;;;;7.29;87.80;95406.88;5112806;28;20486;-55
2022/11/29 04:18:58;;;;;;;3.27;0.70;;;;;;;6.51;86.45;95283.44;5113089;28;20481;-54
2022/11/29 04:21:57;;;;;;;1.70;1.60;;;;;;;6.63;89.92;95398.13;5112764;28;20518;-54
2022/11/29 04:25:00;;;;;;;2.13;0.50;;;;;;;6.73;91.50;95398.28;5112072;28;20454;-54
2022/11/29 04:27:40;;;;;;;0.53;0.53;;;;;;;6.75;90.85;95372.50;5110328;28;20463;-54
2022/11/29 04:30:20;;;;;;;2.87;0.70;;;;;;;6.96;90.07;95399.91;5112565;28;20527;-54
2022/11/29 04:33:27;;;;;;;1.57;1.47;;;;;;;6.88;91.96;95398.47;5112685;28;20515;-54
2022/11/29 04:36:25;;;;;;;0.80;0.80;;;;;;;5.89;91.89;95222.34;5112336;28;20448;-54
2022/11/29 04:39:12;;;;;;;1.53;1.20;;;;;;;7.09;91.53;95396.09;5110666;28;20444;-54
2022/11/29 04:41:58;;;;;;;0.40;0.40;;;;;;;6.91;89.50;95337.41;5112399;28;20435;-54
2022/11/29 04:44:55;;;;;;;1.90;1.80;;;;;;;6.90;90.64;95395.63;5112774;28;20544;-53
2022/11/29 04:47:51;;;;;;;1.57;1.57;;;;;;;6.65;91.49;95348.69;5110672;28;20440;-54
2022/11/29 04:50:47;;;;;;;0.50;0.50;;;;;;;7.12;91.14;95395.63;5112259;28;20428;-54
2022/11/29 04:53:38;;;;;;;0.90;0.90;;;;;;;7.20;90.59;95393.34;5112614;28;20449;-53
2022/11/29 04:56:16;;;;;;;0.60;0.60;;;;;;;7.09;89.52;95391.63;5112365;28;20439;-54
2022/11/29 04:58:53;;;;;;;1.07;1.07;;;;;;;7.39;87.39;95391.97;5112494;28;20426;-54
2022/11/29 05:01:31;;;;;;;1.07;1.07;;;;;;;7.21;87.92;95405.47;5112084;28;20431;-55
2022/11/29 05:04:07;;;;;;;0.50;0.50;;;;;;;6.72;90.32;95353.75;5112453;28;20408;-54
2022/11/29 05:06:43;;;;;;;0.60;0.60;;;;;;;7.20;90.61;95403.91;5112100;28;20470;-54
2022/11/29 05:09:23;;;;;;;2.83;1.07;;;;;;;7.41;89.50;95394.41;5112182;28;20420;-54
2022/11/29 05:12:01;;;;;;;0.60;0.60;;;;;;;7.27;89.78;95404.50;5112423;28;20435;-54
2022/11/29 05:14:48;;;;;;;1.50;1.40;;;;;;;7.02;89.82;95346.22;5111889;28;20502;-54
2022/11/29 05:17:31;;;;;;;4.43;1.00;;;;;;;7.54;89.19;95407.16;5112159;28;20436;-54
2022/11/29 05:20:23;;;;;;;0.60;0.60;;;;;;;7.63;87.31;95406.50;5112257;28;20736;-54
2022/11/29 05:23:11;;;;;;;3.30;1.30;;;;;;;7.61;87.78;95413.06;5112507;28;20451;-55
2022/11/29 05:25:45;;;;;;;5.40;1.00;;;;;;;7.46;89.15;95407.63;5111338;28;20971;-55
2022/11/29 05:28:20;;;;;;;1.10;1.00;;;;;;;7.45;89.75;95400.75;5111424;28;20474;-55
2022/11/29 05:31:19;;;;;;;1.30;1.30;;;;;;;7.27;90.53;95415.06;5111831;28;20430;-55
2022/11/29 05:34:10;;;;;;;2.20;2.10;;;;;;;6.93;95.01;95411.72;5111598;28;20806;-55
2022/11/29 05:36:49;;;;;;;1.83;1.83;;;;;;;6.65;98.52;95414.53;5112009;28;20777;-54
2022/11/29 05:39:31;;;;;;;1.43;1.33;;;;;;;6.29;100.00;95376.34;5111818;28;20789;-55
2022/11/29 05:42:26;;;;;;;2.53;2.40;;;;;;;7.01;100.00;95407.88;5111600;28;20515;-56
2022/11/29 05:44:59;;;;;;;2.13;2.03;;;;;;;6.93;99.24;95414.34;5111437;28;20843;-56
2022/11/29 05:47:35;;;;;;;1.10;1.00;;;;;;;6.48;99.40;95347.91;5111361;28;20424;-55
2022/11/29 05:50:14;;;;;;;2.10;0.40;;;;;;;7.52;93.50;95401.34;5111415;28;20758;-56
2022/11/29 05:52:50;;;;;;;0.57;0.57;;;;;;;7.50;91.00;95401.59;5111857;28;20487;-56
2022/11/29 05:55:29;;;;;;;1.23;1.23;;;;;;;7.33;91.57;95413.28;5111688;28;20503;-56
2022/11/29 05:58:02;;;;;;;1.00;1.00;;;;;;;7.03;90.78;95367.06;5113794;28;20561;-54
2022/11/29 06:00:41;;;;;;;0.60;0.50;;;;;;;7.33;91.76;95422.00;5115360;27;20434;-55
2022/11/29 06:03:19;;;;;;;2.00;1.37;;;;;;;7.20;92.51;95403.91;5115330;28;20442;-55
2022/11/29 06:05:55;;;;;;;0.60;0.50;;;;;;;7.39;93.15;95420.19;5115431;28;20858;-55
2022/11/29 06:08:35;;;;;;;2.73;2.30;;;;;;;7.41;92.22;95399.66;5115506;28;20445;-55
2022/11/29 06:11:11;;;;;;;0.40;0.30;;;;;;;7.33;91.50;95371.09;5115230;28;20510;-55
2022/11/29 06:13:55;;;;;;;0.90;0.70;;;;;;;7.45;91.12;95425.28;5115094;28;20435;-55
2022/11/29 06:16:37;;;;;;;2.53;2.33;;;;;;;7.23;93.84;95427.13;5115011;28;20566;-55
2022/11/29 06:19:39;;;;;;;1.20;1.20;;;;;;;7.44;94.55;95428.97;5115493;28;20435;-55
2022/11/29 06:22:30;;;;;;;2.43;2.33;;;;;;;7.59;92.51;95421.22;5115528;28;20491;-55
2022/11/29 06:25:17;;;;;;;1.80;1.27;;;;;;;7.66;91.38;95418.41;5114391;28;20428;-55
2022/11/29 06:28:05;;;;;;;0.57;0.57;;;;;;;7.41;93.87;95424.16;5114265;28;20458;-55
2022/11/29 06:30:49;;;;;;;1.63;1.57;;;;;;;7.23;92.91;95403.41;5114664;27;20432;-55
2022/11/29 06:33:22;;;;;;;2.10;1.50;;;;;;;6.94;94.93;95370.38;5114871;28;20416;-55
2022/11/29 06:36:00;;;;;;;1.57;1.47;;;;;;;6.82;95.03;95412.66;5114781;28;20475;-55
2022/11/29 06:38:30;;;;;;;1.90;1.80;;;;;;;6.96;96.66;95436.78;5114809;28;20439;-55
2022/11/29 06:40:59;;;;;;;0.90;0.90;;;;;;;6.91;96.46;95442.78;5115185;28;20956;-56
2022/11/29 06:43:30;;;;;;;3.47;3.37;;;;;;;6.93;97.59;95434.66;5115063;28;20456;-56
2022/11/29 06:46:05;;;;;;;4.03;2.53;;;;;;;6.87;96.60;95396.09;5115163;28;20470;-56
2022/11/29 06:48:40;;;;;;;1.17;0.97;;;;;;;7.37;94.65;95440.72;5114370;28;20931;-56
2022/11/29 06:51:17;;;;;;;2.53;2.43;;;;;;;7.32;94.86;95433.56;5114593;28;20439;-56
2022/11/29 06:53:54;;;;;;;3.30;1.00;;;;;;;7.62;92.97;95430.47;5114364;28;20455;-55
2022/11/29 06:56:30;;;;;;;4.67;2.43;;;;;;;7.56;92.02;95434.13;5114574;28;20463;-55
2022/11/29 06:59:07;;;;;;;1.20;1.10;;;;;;;7.39;91.45;95402.53;5114184;28;20446;-56
2022/11/29 07:01:44;;;;;;;1.53;1.43;;;;;;;6.85;91.12;95337.59;5114344;28;20801;-56
2022/11/29 07:04:33;;;;;;;0.50;0.50;;;;;;;7.37;90.10;95378.25;5113793;28;20777;-56
2022/11/29 07:07:02;;;;;;;1.83;1.73;;;;;;;7.68;90.42;95432.94;5114199;28;20442;-55
2022/11/29 07:09:34;;;;;;;2.63;2.00;;;;;;;7.61;90.37;95432.31;5112718;28;20428;-56
2022/11/29 07:12:03;;;;;;;1.33;1.33;;;;;;;7.44;92.08;95442.13;5114265;28;20847;-56
2022/11/29 07:14:32;;;;;;;3.00;2.63;;;;;;;7.29;93.64;95444.59;5113682;28;20507;-55
2022/11/29 07:17:08;;;;;;;2.60;2.40;;;;;;;6.65;95.47;95440.06;5113819;28;20962;-55
2022/11/29 07:19:51;;;;;;;2.20;1.77;;;;;;;6.63;98.26;95439.50;5113930;28;20430;-55
2022/11/29 07:22:35;;;;;;;0.80;0.80;;;;;;;7.28;94.13;95429.84;5114027;28;20419;-56
2022/11/29 07:25:30;;;;;;;0.70;0.70;;;;;;;7.82;89.99;95429.91;5113780;28;20958;-56
2022/11/29 07:28:13;;;;;;;0.83;0.80;;;;;;;8.27;85.76;95435.63;5113472;28;20514;-56
2022/11/29 07:30:50;;;;;;;0.40;0.40;;;;;;;8.27;83.86;95431.13;5113999;27;20512;-57
2022/11/29 07:33:26;;;;;;;0.50;0.50;;;;;;;8.31;83.31;95431.44;5113862;28;20427;-55
2022/11/29 07:36:01;;;;;;;0.60;0.53;;;;;;;8.28;82.51;95427.44;5113758;28;20474;-56
2022/11/29 07:38:50;;;;;;;1.20;1.17;;;;;;;8.42;82.62;95437.59;5113216;28;20523;-56
2022/11/29 07:41:27;;;;;;;0.60;0.37;;;;;;;8.45;81.52;95443.16;5113431;28;20514;-55
2022/11/29 07:44:05;;;;;;;0.73;0.73;;;;;;;8.73;80.46;95434.09;5113122;28;20435;-56
2022/11/29 07:46:33;;;;;;;1.13;1.03;;;;;;;8.20;79.31;95332.81;5113197;28;21067;-55
2022/11/29 07:49:01;;;;;;;0.73;0.73;;;;;;;8.66;80.98;95436.97;5113224;28;20528;-56
2022/11/29 07:51:31;;;;;;;0.50;0.50;;;;;;;8.59;80.29;95435.59;5113086;28;20524;-55
2022/11/29 07:54:00;;;;;;;0.90;0.77;;;;;;;8.72;79.97;95435.97;5113470;28;20531;-55
2022/11/29 07:56:29;;;;;;;2.60;2.40;;;;;;;8.56;81.46;95434.28;5113561;28;20554;-55
2022/11/29 07:58:58;;;;;;;4.73;1.90;;;;;;;8.74;79.70;95436.50;5113477;28;20428;-55
2022/11/29 08:01:26;;;;;;;3.23;1.43;;;;;;;9.00;78.48;95440.13;5113615;28;20458;-56
2022/11/29 08:03:54;;;;;;;0.90;0.90;;;;;;;9.32;77.67;95432.06;5112981;28;20932;-55
2022/11/29 08:06:26;;;;;;;2.20;1.37;;;;;;;9.17;77.05;95443.38;5113220;28;20434;-55
2022/11/29 08:08:57;;;;;;;0.70;0.70;;;;;;;9.22;77.03;95437.31;5113263;28;20416;-55
2022/11/29 08:11:27;;;;;;;11.37;2.27;;;;;;;9.34;77.17;95437.88;5113055;28;20423;-55
2022/11/29 08:13:57;;;;;;;0.77;0.77;;;;;;;8.78;75.83;95378.66;5112584;28;20790;-55
2022/11/29 08:16:26;;;;;;;0.70;0.53;;;;;;;9.37;76.15;95482.34;5112815;28;20806;-56
2022/11/29 08:18:54;;;;;;;1.73;1.40;;;;;;;9.29;76.32;95449.25;5112679;28;20912;-55
2022/11/29 08:21:22;;;;;;;1.67;1.17;;;;;;;9.37;76.53;95446.09;5112475;28;20420;-55
2022/11/29 08:23:51;;;;;;;0.50;0.40;;;;;;;9.47;75.34;95445.34;5112615;28;20424;-56
2022/11/29 08:26:20;;;;;;;4.30;1.13;;;;;;;9.49;74.76;95444.03;5112591;28;21157;-55
2022/11/29 08:28:55;;;;;;;2.60;2.20;;;;;;;9.19;76.05;95445.75;5112695;28;20474;-57
2022/11/29 08:31:25;;;;;;;2.40;2.30;;;;;;;9.19;75.89;95432.53;5112679;27;20428;-56
2022/11/29 08:33:53;;;;;;;3.70;3.60;;;;;;;9.14;74.53;95433.31;5112429;28;20531;-56
2022/11/29 08:36:21;;;;;;;3.17;3.07;;;;;;;9.08;74.58;95436.19;5112741;28;20470;-56
2022/11/29 08:38:50;;;;;;;1.20;1.10;;;;;;;9.19;73.96;95425.41;5112030;28;20921;-55
2022/11/29 08:41:28;;;;;;;1.97;1.87;;;;;;;9.39;74.52;95416.75;5112155;28;20489;-56
2022/11/29 08:43:57;;;;;;;1.13;1.13;;;;;;;9.59;74.69;95416.81;5112253;28;20436;-56
2022/11/29 08:47:34;;;;;;;2.43;2.30;;;;;;;9.62;72.27;95421.59;5112329;28;20429;-56
2022/11/29 08:49:15;;;;;;;0.60;0.40;;;;;;;9.71;72.71;95414.75;5112058;28;20439;-56
2022/11/29 08:51:43;;;;;;;1.13;1.13;;;;;;;9.76;72.19;95400.72;5112497;28;20424;-56
2022/11/29 08:54:11;;;;;;;0.90;0.73;;;;;;;9.49;72.51;95403.56;5112094;28;20523;-55
2022/11/29 08:56:39;;;;;;;5.20;0.90;;;;;;;9.46;74.01;95407.50;5112137;28;20456;-55
2022/11/29 08:59:27;;;;;;;2.60;1.63;;;;;;;9.27;74.67;95350.84;5111827;28;20653;-56
2022/11/29 09:01:57;;;;;;;3.07;0.77;;;;;;;9.92;73.41;95400.47;5111401;28;20501;-55
2022/11/29 09:04:25;;;;;;;1.90;1.80;;;;;;;9.98;74.13;95393.34;5112286;28;20512;-54
2022/11/29 09:06:54;;;;;;;7.93;1.03;;;;;;;9.65;73.73;95384.03;5112371;28;20928;-53
2022/11/29 09:09:22;;;;;;;1.37;1.37;;;;;;;9.81;73.79;95388.31;5111757;28;20522;-54
2022/11/29 09:11:50;;;;;;;2.50;0.80;;;;;;;9.96;73.58;95385.69;5112120;28;20916;-54
2022/11/29 09:14:21;;;;;;;0.80;0.80;;;;;;;10.17;72.90;95384.66;5112029;28;20447;-53
2022/11/29 09:16:49;;;;;;;1.80;1.03;;;;;;;10.23;72.36;95392.59;5111921;28;20519;-53
2022/11/29 09:19:19;;;;;;;3.03;0.90;;;;;;;10.22;72.15;95386.50;5112024;28;20432;-53
2022/11/29 09:21:47;;;;;;;2.40;0.80;;;;;;;9.97;73.48;95389.91;5112176;28;20416;-54
2022/11/29 09:24:15;;;;;;;0.60;0.60;;;;;;;10.27;72.33;95388.38;5111564;28;20423;-53
2022/11/29 09:26:47;;;;;;;1.23;0.80;;;;;;;10.24;71.68;95354.47;5111793;28;20519;-53
2022/11/29 09:29:16;;;;;;;5.90;1.50;;;;;;;10.38;72.13;95380.16;5111552;28;20468;-54
2022/11/29 09:31:44;;;;;;;16.40;4.17;;;;;;;9.85;73.60;95378.78;5112198;28;20434;-54
2022/11/29 09:34:13;;;;;;;10.83;2.97;;;;;;;9.66;75.17;95376.88;5115603;28;20840;-54
2022/11/29 09:36:43;;;;;;;2.27;2.17;;;;;;;9.90;76.01;95380.63;5115449;28;20807;-54
2022/11/29 09:39:12;;;;;;;3.00;2.80;;;;;;;10.13;75.15;95375.66;5115620;28;20467;-54
2022/11/29 09:42:08;;;;;;;1.37;1.37;;;;;;;10.11;74.36;95371.66;5115764;27;20431;-54
2022/11/29 09:44:47;;;;;;;7.97;3.33;;;;;;;9.24;76.25;95361.94;5114205;28;20436;-55
2022/11/29 09:47:27;;;;;;;3.90;3.80;;;;;;;9.25;79.10;95370.69;5115759;28;20425;-54
2022/11/29 09:50:16;;;;;;;2.60;2.50;;;;;;;9.66;77.65;95359.16;5115565;28;20438;-53
2022/11/29 09:52:54;;;;;;;2.77;1.20;;;;;;;9.48;78.31;95359.66;5115834;28;20431;-54
2022/11/29 09:55:46;;;;;;;4.97;2.00;;;;;;;9.61;77.89;95351.22;5115730;28;20432;-54
2022/11/29 09:58:20;;;;;;;7.60;2.97;;;;;;;9.17;79.73;95360.59;5115419;28;20460;-53
2022/11/29 10:00:52;;;;;;;5.90;1.60;;;;;;;8.99;80.81;95353.91;5115372;28;20459;-54
2022/11/29 10:03:25;;;;;;;0.70;0.70;;;;;;;9.01;80.85;95321.94;5115488;28;20424;-54
2022/11/29 10:05:58;;;;;;;2.33;2.23;;;;;;;9.06;80.93;95353.69;5115364;28;20440;-54
2022/11/29 10:08:36;;;;;;;0.40;0.40;;;;;;;8.32;80.17;95237.63;5115312;28;20426;-54
2022/11/29 10:11:18;;;;;;;2.40;1.37;;;;;;;8.87;80.69;95348.06;5115157;28;20419;-53
2022/11/29 10:13:52;;;;;;;1.07;1.07;;;;;;;9.13;81.25;95344.47;5114188;27;20427;-54
2022/11/29 10:16:28;;;;;;;1.47;1.37;;;;;;;9.46;79.35;95343.25;5115491;28;20429;-54
2022/11/29 10:19:03;;;;;;;1.17;1.17;;;;;;;9.10;79.44;95341.53;5114895;28;20427;-54
2022/11/29 10:21:35;;;;;;;1.70;0.67;;;;;;;9.27;79.32;95337.63;5115032;28;20421;-56
2022/11/29 10:24:13;;;;;;;0.90;0.90;;;;;;;8.43;79.71;95218.13;5115115;28;20428;-53
2022/11/29 10:26:42;;;;;;;0.40;0.30;;;;;;;9.83;77.42;95338.53;5114814;28;20512;-54
2022/11/29 10:29:14;;;;;;;1.03;0.83;;;;;;;9.75;76.75;95325.81;5114456;28;20467;-54
2022/11/29 10:31:48;;;;;;;0.40;0.40;;;;;;;9.43;76.94;95309.38;5115145;27;20430;-54
2022/11/29 10:34:18;;;;;;;2.13;2.03;;;;;;;9.93;75.74;95329.81;5114553;28;20912;-54
2022/11/29 10:36:49;;;;;;;2.20;1.77;;;;;;;9.61;75.80;95324.75;5114493;28;20470;-55
2022/11/29 10:39:23;;;;;;;2.77;1.50;;;;;;;8.98;76.63;95261.66;5114620;28;20443;-54
2022/11/29 10:41:59;;;;;;;1.17;1.07;;;;;;;9.69;76.11;95318.94;5114965;28;20818;-54
2022/11/29 10:44:28;;;;;;;0.30;0.30;;;;;;;10.11;74.22;95308.91;5114318;28;20439;-54
2022/11/29 10:46:58;;;;;;;0.80;0.77;;;;;;;9.97;73.86;95312.31;5114493;28;20877;-55
2022/11/29 10:49:30;;;;;;;0.90;0.90;;;;;;;10.28;73.21;95302.53;5114194;28;20416;-54
2022/11/29 10:51:58;;;;;;;3.70;1.57;;;;;;;10.51;73.89;95307.28;5114418;28;20424;-54
2022/11/29 10:54:37;;;;;;;0.90;0.90;;;;;;;10.48;73.49;95308.59;5114441;28;20523;-55
2022/11/29 10:57:13;;;;;;;4.53;1.87;;;;;;;10.38;72.49;95300.66;5114220;28;20559;-55
2022/11/29 10:59:43;;;;;;;1.37;1.23;;;;;;;10.71;73.24;95280.72;5114102;28;20914;-55
2022/11/29 11:02:18;;;;;;;1.03;1.03;;;;;;;10.37;74.16;95300.94;5112818;28;20420;-54
2022/11/29 11:04:48;;;;;;;1.63;1.53;;;;;;;10.33;74.42;95290.09;5114380;28;20508;-56
2022/11/29 11:07:24;;;;;;;1.80;1.70;;;;;;;10.32;73.64;95296.47;5113597;28;20923;-54
2022/11/29 11:09:56;;;;;;;0.60;0.60;;;;;;;10.17;72.83;95231.03;5114383;28;20433;-54
2022/11/29 11:12:29;;;;;;;1.33;1.23;;;;;;;10.88;72.84;95291.00;5114117;28;20520;-54
2022/11/29 11:15:26;;;;;;;0.40;0.40;;;;;;;10.90;71.80;95292.31;5113832;28;20420;-54
2022/11/29 11:17:59;;;;;;;8.67;1.07;;;;;;;10.81;71.61;95293.94;5114003;28;20483;-54
2022/11/29 11:20:31;;;;;;;2.93;2.83;;;;;;;10.29;72.96;95297.00;5114287;28;20420;-54
2022/11/29 11:23:02;;;;;;;0.70;0.70;;;;;;;11.09;71.76;95287.19;5113751;28;20525;-54
2022/11/29 11:25:34;;;;;;;0.57;0.57;;;;;;;11.46;69.85;95282.19;5113485;28;20462;-55
2022/11/29 11:28:16;;;;;;;0.73;0.73;;;;;;;11.11;70.74;95282.38;5113448;28;21085;-54
2022/11/29 11:30:50;;;;;;;1.23;0.40;;;;;;;11.25;69.85;95288.69;5113729;28;20920;-54
2022/11/29 11:33:24;;;;;;;1.27;1.20;;;;;;;10.99;70.83;95288.03;5113781;27;20429;-55
2022/11/29 11:36:08;;;;;;;1.17;1.10;;;;;;;11.08;71.06;95285.63;5113653;27;20775;-54
2022/11/29 11:38:37;;;;;;;0.60;0.60;;;;;;;11.25;70.96;95286.84;5113393;28;20548;-54
2022/11/29 11:42:35;;;;;;;1.87;1.80;;;;;;;11.65;69.51;95287.66;5113879;28;20521;-55
2022/11/29 11:44:25;;;;;;;0.60;0.53;;;;;;;11.29;69.51;95301.13;5113122;28;20960;-56
2022/11/29 11:47:16;;;;;;;0.40;0.40;;;;;;;11.72;68.67;95288.16;5113244;28;20435;-55
2022/11/29 11:49:50;;;;;;;0.50;0.50;;;;;;;12.01;67.93;95279.19;5113060;28;20428;-54
2022/11/29 11:52:22;;;;;;;1.57;1.47;;;;;;;11.69;67.57;95278.13;5112963;27;20438;-55
2022/11/29 11:54:53;;;;;;;0.50;0.50;;;;;;;11.68;68.05;95279.97;5112178;27;20964;-55
2022/11/29 11:57:25;;;;;;;1.60;1.47;;;;;;;11.82;67.89;95270.31;5112709;28;20430;-54
2022/11/29 11:59:56;;;;;;;0.77;0.77;;;;;;;11.05;67.84;95183.53;5113140;28;20432;-54
2022/11/29 12:02:38;;;;;;;0.70;0.70;;;;;;;11.85;77.51;95269.75;5112132;28;20467;-57
2022/11/29 12:05:13;;;;;;;0.40;0.30;;;;;;;11.93;67.48;95249.78;5112977;28;20486;-55
2022/11/29 12:07:46;;;;;;;0.40;0.30;;;;;;;12.09;67.57;95269.81;5112261;28;20533;-55
2022/11/29 12:10:36;;;;;;;0.60;0.43;;;;;;;11.98;67.51;95237.25;5111963;28;20446;-55
2022/11/29 12:13:07;;;;;;;1.03;1.03;;;;;;;11.96;68.19;95265.94;5112651;28;20436;-55
2022/11/29 12:15:38;;;;;;;0.73;0.70;;;;;;;11.76;68.35;95252.84;5112994;28;20844;-56
2022/11/29 12:18:12;;;;;;;6.30;0.73;;;;;;;11.90;68.02;95258.28;5112267;28;20473;-56
2022/11/29 12:20:46;;;;;;;2.70;1.50;;;;;;;11.77;68.14;95266.88;5112028;28;20438;-56
2022/11/29 12:23:28;;;;;;;0.70;0.70;;;;;;;11.11;68.67;95187.69;5112448;28;20434;-55
2022/11/29 12:26:02;;;;;;;0.50;0.50;;;;;;;11.89;67.99;95254.06;5111971;28;20433;-55